sensor_id;sensor_type;location;lat;lon;timestamp;P1;durP1;ratioP1;P2;durP2;ratioP2
74108;SDS011;62466;47.566;7.786;2023-05-10T00:24:56;0.90;;;0.90;;
74108;SDS011;62466;47.566;7.786;2023-05-10T01:39:12;0.93;;;0.93;;
74108;SDS011;62466;47.566;7.786;2023-05-10T01:57:24;0.82;;;0.82;;
74108;SDS011;62466;47.566;7.786;2023-05-10T02:00:46;1.38;;;0.85;;
74108;SDS011;62466;47.566;7.786;2023-05-10T02:15:22;1.00;;;1.00;;
74108;SDS011;62466;47.566;7.786;2023-05-10T02:17:52;1.73;;;0.98;;
74108;SDS011;62466;47.566;7.786;2023-05-10T02:20:56;1.95;;;1.13;;
74108;SDS011;62466;47.566;7.786;2023-05-10T02:23:44;1.35;;;1.25;;
74108;SDS011;62466;47.566;7.786;2023-05-10T02:26:53;1.33;;;0.90;;
74108;SDS011;62466;47.566;7.786;2023-05-10T02:52:24;1.40;;;0.85;;
74108;SDS011;62466;47.566;7.786;2023-05-10T03:18:20;2.38;;;1.08;;
74108;SDS011;62466;47.566;7.786;2023-05-10T03:21:36;1.00;;;1.00;;
74108;SDS011;62466;47.566;7.786;2023-05-10T03:52:01;1.95;;;1.10;;
74108;SDS011;62466;47.566;7.786;2023-05-10T03:54:48;0.90;;;0.90;;
74108;SDS011;62466;47.566;7.786;2023-05-10T03:57:56;1.00;;;1.00;;
74108;SDS011;62466;47.566;7.786;2023-05-10T04:01:21;0.82;;;0.82;;
74108;SDS011;62466;47.566;7.786;2023-05-10T04:04:49;1.48;;;1.00;;
74108;SDS011;62466;47.566;7.786;2023-05-10T04:08:38;2.58;;;0.90;;
74108;SDS011;62466;47.566;7.786;2023-05-10T04:36:10;3.00;;;1.10;;
74108;SDS011;62466;47.566;7.786;2023-05-10T04:39:00;1.95;;;1.10;;
74108;SDS011;62466;47.566;7.786;2023-05-10T04:46:09;0.80;;;0.80;;
74108;SDS011;62466;47.566;7.786;2023-05-10T04:53:44;2.05;;;0.73;;
74108;SDS011;62466;47.566;7.786;2023-05-10T05:05:16;0.82;;;0.80;;
74108;SDS011;62466;47.566;7.786;2023-05-10T05:38:59;0.88;;;0.88;;
74108;SDS011;62466;47.566;7.786;2023-05-10T05:41:25;1.70;;;1.13;;
74108;SDS011;62466;47.566;7.786;2023-05-10T05:43:51;3.75;;;1.20;;
74108;SDS011;62466;47.566;7.786;2023-05-10T05:46:18;1.00;;;0.90;;
74108;SDS011;62466;47.566;7.786;2023-05-10T05:48:47;1.20;;;1.10;;
74108;SDS011;62466;47.566;7.786;2023-05-10T05:51:13;1.40;;;1.10;;
74108;SDS011;62466;47.566;7.786;2023-05-10T05:53:39;1.15;;;1.15;;
74108;SDS011;62466;47.566;7.786;2023-05-10T05:56:08;2.30;;;1.30;;
74108;SDS011;62466;47.566;7.786;2023-05-10T05:58:37;1.02;;;1.02;;
74108;SDS011;62466;47.566;7.786;2023-05-10T06:01:03;2.05;;;1.33;;
74108;SDS011;62466;47.566;7.786;2023-05-10T06:03:29;3.90;;;1.60;;
74108;SDS011;62466;47.566;7.786;2023-05-10T06:05:55;5.35;;;1.25;;
74108;SDS011;62466;47.566;7.786;2023-05-10T06:08:20;1.13;;;1.08;;
74108;SDS011;62466;47.566;7.786;2023-05-10T06:10:48;3.10;;;1.58;;
74108;SDS011;62466;47.566;7.786;2023-05-10T06:13:22;1.92;;;1.08;;
74108;SDS011;62466;47.566;7.786;2023-05-10T06:15:56;1.58;;;1.48;;
74108;SDS011;62466;47.566;7.786;2023-05-10T06:18:24;2.35;;;1.35;;
74108;SDS011;62466;47.566;7.786;2023-05-10T06:24:05;1.20;;;1.20;;
74108;SDS011;62466;47.566;7.786;2023-05-10T06:26:42;3.53;;;1.50;;
74108;SDS011;62466;47.566;7.786;2023-05-10T06:29:09;3.15;;;1.70;;
74108;SDS011;62466;47.566;7.786;2023-05-10T06:31:44;5.72;;;1.52;;
74108;SDS011;62466;47.566;7.786;2023-05-10T06:34:11;2.90;;;1.42;;
74108;SDS011;62466;47.566;7.786;2023-05-10T06:36:59;3.50;;;1.30;;
74108;SDS011;62466;47.566;7.786;2023-05-10T06:39:24;2.90;;;1.65;;
74108;SDS011;62466;47.566;7.786;2023-05-10T06:41:50;2.50;;;1.60;;
74108;SDS011;62466;47.566;7.786;2023-05-10T06:44:18;2.97;;;1.45;;
74108;SDS011;62466;47.566;7.786;2023-05-10T06:46:43;2.40;;;1.90;;
74108;SDS011;62466;47.566;7.786;2023-05-10T06:49:09;3.30;;;1.80;;
74108;SDS011;62466;47.566;7.786;2023-05-10T06:51:49;2.28;;;1.80;;
74108;SDS011;62466;47.566;7.786;2023-05-10T06:54:23;3.85;;;1.50;;
74108;SDS011;62466;47.566;7.786;2023-05-10T06:56:51;1.70;;;1.40;;
74108;SDS011;62466;47.566;7.786;2023-05-10T06:59:18;3.03;;;1.75;;
74108;SDS011;62466;47.566;7.786;2023-05-10T07:01:47;3.08;;;1.20;;
74108;SDS011;62466;47.566;7.786;2023-05-10T07:05:19;3.17;;;1.33;;
74108;SDS011;62466;47.566;7.786;2023-05-10T07:08:26;1.50;;;1.40;;
74108;SDS011;62466;47.566;7.786;2023-05-10T07:10:52;2.35;;;1.30;;
74108;SDS011;62466;47.566;7.786;2023-05-10T07:13:17;1.33;;;1.23;;
74108;SDS011;62466;47.566;7.786;2023-05-10T07:15:43;2.38;;;1.25;;
74108;SDS011;62466;47.566;7.786;2023-05-10T07:18:08;1.48;;;1.42;;
74108;SDS011;62466;47.566;7.786;2023-05-10T07:20:33;1.65;;;1.50;;
74108;SDS011;62466;47.566;7.786;2023-05-10T07:22:59;2.47;;;1.23;;
74108;SDS011;62466;47.566;7.786;2023-05-10T07:25:25;2.47;;;1.55;;
74108;SDS011;62466;47.566;7.786;2023-05-10T07:27:51;1.88;;;1.23;;
74108;SDS011;62466;47.566;7.786;2023-05-10T07:30:19;0.98;;;0.85;;
74108;SDS011;62466;47.566;7.786;2023-05-10T07:32:45;1.67;;;1.38;;
74108;SDS011;62466;47.566;7.786;2023-05-10T07:35:10;1.38;;;1.27;;
74108;SDS011;62466;47.566;7.786;2023-05-10T07:37:36;3.50;;;1.00;;
74108;SDS011;62466;47.566;7.786;2023-05-10T07:40:01;2.90;;;1.40;;
74108;SDS011;62466;47.566;7.786;2023-05-10T07:42:27;1.85;;;1.20;;
74108;SDS011;62466;47.566;7.786;2023-05-10T07:44:52;3.70;;;1.42;;
74108;SDS011;62466;47.566;7.786;2023-05-10T07:47:18;3.13;;;1.13;;
74108;SDS011;62466;47.566;7.786;2023-05-10T07:49:44;1.75;;;1.20;;
74108;SDS011;62466;47.566;7.786;2023-05-10T07:52:11;1.50;;;1.38;;
74108;SDS011;62466;47.566;7.786;2023-05-10T07:54:38;1.95;;;1.10;;
74108;SDS011;62466;47.566;7.786;2023-05-10T07:57:04;2.13;;;1.13;;
74108;SDS011;62466;47.566;7.786;2023-05-10T07:59:29;1.38;;;1.10;;
74108;SDS011;62466;47.566;7.786;2023-05-10T08:01:55;1.90;;;1.23;;
74108;SDS011;62466;47.566;7.786;2023-05-10T08:04:31;1.10;;;1.00;;
74108;SDS011;62466;47.566;7.786;2023-05-10T08:06:56;2.65;;;1.10;;
74108;SDS011;62466;47.566;7.786;2023-05-10T08:09:25;2.60;;;1.20;;
74108;SDS011;62466;47.566;7.786;2023-05-10T08:11:53;3.20;;;1.30;;
74108;SDS011;62466;47.566;7.786;2023-05-10T08:14:19;1.77;;;1.00;;
74108;SDS011;62466;47.566;7.786;2023-05-10T08:16:44;8.02;;;1.33;;
74108;SDS011;62466;47.566;7.786;2023-05-10T08:19:10;3.53;;;1.10;;
74108;SDS011;62466;47.566;7.786;2023-05-10T08:21:36;2.22;;;1.20;;
74108;SDS011;62466;47.566;7.786;2023-05-10T08:24:01;1.05;;;0.90;;
74108;SDS011;62466;47.566;7.786;2023-05-10T08:26:27;3.45;;;1.10;;
74108;SDS011;62466;47.566;7.786;2023-05-10T08:28:52;2.35;;;0.90;;
74108;SDS011;62466;47.566;7.786;2023-05-10T08:31:18;2.47;;;1.65;;
74108;SDS011;62466;47.566;7.786;2023-05-10T08:33:46;0.80;;;0.80;;
74108;SDS011;62466;47.566;7.786;2023-05-10T08:36:12;4.97;;;0.90;;
74108;SDS011;62466;47.566;7.786;2023-05-10T08:38:39;2.50;;;0.82;;
74108;SDS011;62466;47.566;7.786;2023-05-10T08:41:07;1.90;;;0.90;;
74108;SDS011;62466;47.566;7.786;2023-05-10T08:43:35;2.35;;;0.82;;
74108;SDS011;62466;47.566;7.786;2023-05-10T08:46:20;2.03;;;0.80;;
74108;SDS011;62466;47.566;7.786;2023-05-10T08:48:53;2.10;;;1.02;;
74108;SDS011;62466;47.566;7.786;2023-05-10T08:51:19;4.70;;;0.90;;
74108;SDS011;62466;47.566;7.786;2023-05-10T08:53:48;0.93;;;0.80;;
74108;SDS011;62466;47.566;7.786;2023-05-10T08:56:15;0.80;;;0.75;;
74108;SDS011;62466;47.566;7.786;2023-05-10T08:58:44;4.03;;;0.80;;
74108;SDS011;62466;47.566;7.786;2023-05-10T09:01:13;2.15;;;1.73;;
74108;SDS011;62466;47.566;7.786;2023-05-10T09:03:39;1.65;;;0.60;;
74108;SDS011;62466;47.566;7.786;2023-05-10T09:06:07;1.95;;;0.60;;
74108;SDS011;62466;47.566;7.786;2023-05-10T09:08:33;0.60;;;0.60;;
74108;SDS011;62466;47.566;7.786;2023-05-10T09:11:02;1.48;;;0.80;;
74108;SDS011;62466;47.566;7.786;2023-05-10T09:13:28;4.03;;;0.85;;
74108;SDS011;62466;47.566;7.786;2023-05-10T09:15:55;2.55;;;0.60;;
74108;SDS011;62466;47.566;7.786;2023-05-10T09:18:20;0.60;;;0.40;;
74108;SDS011;62466;47.566;7.786;2023-05-10T09:20:55;1.35;;;0.70;;
74108;SDS011;62466;47.566;7.786;2023-05-10T09:23:53;1.27;;;0.67;;
74108;SDS011;62466;47.566;7.786;2023-05-10T09:26:23;1.70;;;0.82;;
74108;SDS011;62466;47.566;7.786;2023-05-10T09:29:00;1.95;;;0.60;;
74108;SDS011;62466;47.566;7.786;2023-05-10T09:31:50;1.27;;;0.70;;
74108;SDS011;62466;47.566;7.786;2023-05-10T09:34:29;0.83;;;0.70;;
74108;SDS011;62466;47.566;7.786;2023-05-10T09:37:39;2.80;;;1.02;;
74108;SDS011;62466;47.566;7.786;2023-05-10T09:40:07;2.67;;;0.80;;
74108;SDS011;62466;47.566;7.786;2023-05-10T09:42:50;1.90;;;0.80;;
74108;SDS011;62466;47.566;7.786;2023-05-10T09:45:33;1.67;;;0.70;;
74108;SDS011;62466;47.566;7.786;2023-05-10T09:48:07;2.13;;;0.60;;
74108;SDS011;62466;47.566;7.786;2023-05-10T09:50:33;2.65;;;0.88;;
74108;SDS011;62466;47.566;7.786;2023-05-10T09:53:17;3.55;;;0.70;;
74108;SDS011;62466;47.566;7.786;2023-05-10T09:55:44;1.85;;;0.70;;
74108;SDS011;62466;47.566;7.786;2023-05-10T09:58:46;2.85;;;0.93;;
74108;SDS011;62466;47.566;7.786;2023-05-10T10:01:36;1.25;;;0.95;;
74108;SDS011;62466;47.566;7.786;2023-05-10T10:04:07;2.05;;;0.90;;
74108;SDS011;62466;47.566;7.786;2023-05-10T10:06:39;2.30;;;0.70;;
74108;SDS011;62466;47.566;7.786;2023-05-10T10:09:05;0.88;;;0.70;;
74108;SDS011;62466;47.566;7.786;2023-05-10T10:11:52;1.98;;;0.60;;
74108;SDS011;62466;47.566;7.786;2023-05-10T10:14:21;0.85;;;0.47;;
74108;SDS011;62466;47.566;7.786;2023-05-10T10:17:00;0.68;;;0.63;;
74108;SDS011;62466;47.566;7.786;2023-05-10T10:19:29;2.95;;;0.65;;
74108;SDS011;62466;47.566;7.786;2023-05-10T10:22:11;3.97;;;0.77;;
74108;SDS011;62466;47.566;7.786;2023-05-10T10:24:44;2.58;;;0.80;;
74108;SDS011;62466;47.566;7.786;2023-05-10T10:36:05;0.90;;;0.70;;
74108;SDS011;62466;47.566;7.786;2023-05-10T10:39:07;0.77;;;0.70;;
74108;SDS011;62466;47.566;7.786;2023-05-10T10:41:36;3.28;;;0.90;;
74108;SDS011;62466;47.566;7.786;2023-05-10T10:49:38;1.23;;;1.00;;
74108;SDS011;62466;47.566;7.786;2023-05-10T11:00:30;2.70;;;1.20;;
74108;SDS011;62466;47.566;7.786;2023-05-10T11:05:46;3.03;;;0.95;;
74108;SDS011;62466;47.566;7.786;2023-05-10T11:08:14;2.72;;;0.80;;
74108;SDS011;62466;47.566;7.786;2023-05-10T11:13:32;2.78;;;0.90;;
74108;SDS011;62466;47.566;7.786;2023-05-10T11:16:09;1.30;;;0.80;;
74108;SDS011;62466;47.566;7.786;2023-05-10T11:19:02;2.78;;;0.90;;
74108;SDS011;62466;47.566;7.786;2023-05-10T11:21:29;2.33;;;0.80;;
74108;SDS011;62466;47.566;7.786;2023-05-10T11:23:56;2.92;;;0.73;;
74108;SDS011;62466;47.566;7.786;2023-05-10T11:26:23;3.22;;;0.90;;
74108;SDS011;62466;47.566;7.786;2023-05-10T11:28:59;2.53;;;0.80;;
74108;SDS011;62466;47.566;7.786;2023-05-10T11:31:29;1.40;;;1.00;;
74108;SDS011;62466;47.566;7.786;2023-05-10T11:33:55;1.48;;;0.70;;
74108;SDS011;62466;47.566;7.786;2023-05-10T11:36:26;1.92;;;0.73;;
74108;SDS011;62466;47.566;7.786;2023-05-10T11:38:53;2.05;;;0.50;;
74108;SDS011;62466;47.566;7.786;2023-05-10T11:41:19;1.55;;;0.60;;
74108;SDS011;62466;47.566;7.786;2023-05-10T11:43:52;1.40;;;0.57;;
74108;SDS011;62466;47.566;7.786;2023-05-10T11:46:22;1.05;;;0.50;;
74108;SDS011;62466;47.566;7.786;2023-05-10T11:49:00;2.15;;;0.60;;
74108;SDS011;62466;47.566;7.786;2023-05-10T11:51:28;1.70;;;0.80;;
74108;SDS011;62466;47.566;7.786;2023-05-10T11:53:54;2.28;;;0.63;;
74108;SDS011;62466;47.566;7.786;2023-05-10T11:56:20;1.63;;;0.60;;
74108;SDS011;62466;47.566;7.786;2023-05-10T11:58:52;2.38;;;0.82;;
74108;SDS011;62466;47.566;7.786;2023-05-10T12:01:21;2.35;;;0.80;;
74108;SDS011;62466;47.566;7.786;2023-05-10T12:03:48;0.70;;;0.70;;
74108;SDS011;62466;47.566;7.786;2023-05-10T12:06:15;1.33;;;0.93;;
74108;SDS011;62466;47.566;7.786;2023-05-10T12:08:44;1.75;;;0.73;;
74108;SDS011;62466;47.566;7.786;2023-05-10T12:11:12;2.30;;;0.70;;
74108;SDS011;62466;47.566;7.786;2023-05-10T12:13:39;2.72;;;1.00;;
74108;SDS011;62466;47.566;7.786;2023-05-10T12:16:15;1.75;;;0.95;;
74108;SDS011;62466;47.566;7.786;2023-05-10T12:18:41;1.13;;;0.82;;
74108;SDS011;62466;47.566;7.786;2023-05-10T12:21:09;2.50;;;0.68;;
74108;SDS011;62466;47.566;7.786;2023-05-10T12:23:37;2.30;;;0.68;;
74108;SDS011;62466;47.566;7.786;2023-05-10T12:26:04;2.10;;;0.57;;
74108;SDS011;62466;47.566;7.786;2023-05-10T12:28:30;0.77;;;0.60;;
74108;SDS011;62466;47.566;7.786;2023-05-10T12:31:00;1.38;;;0.60;;
74108;SDS011;62466;47.566;7.786;2023-05-10T12:33:26;1.50;;;0.60;;
74108;SDS011;62466;47.566;7.786;2023-05-10T12:35:52;0.80;;;0.57;;
74108;SDS011;62466;47.566;7.786;2023-05-10T12:38:25;2.55;;;1.48;;
74108;SDS011;62466;47.566;7.786;2023-05-10T12:40:52;3.70;;;0.80;;
74108;SDS011;62466;47.566;7.786;2023-05-10T12:43:17;2.53;;;0.75;;
74108;SDS011;62466;47.566;7.786;2023-05-10T12:45:43;3.53;;;0.80;;
74108;SDS011;62466;47.566;7.786;2023-05-10T12:48:12;2.20;;;0.80;;
74108;SDS011;62466;47.566;7.786;2023-05-10T12:50:38;2.53;;;1.15;;
74108;SDS011;62466;47.566;7.786;2023-05-10T12:53:04;1.52;;;0.75;;
74108;SDS011;62466;47.566;7.786;2023-05-10T12:55:32;0.95;;;0.73;;
74108;SDS011;62466;47.566;7.786;2023-05-10T12:57:58;1.35;;;0.82;;
74108;SDS011;62466;47.566;7.786;2023-05-10T13:00:23;1.27;;;0.60;;
74108;SDS011;62466;47.566;7.786;2023-05-10T13:02:49;0.65;;;0.60;;
74108;SDS011;62466;47.566;7.786;2023-05-10T13:05:14;1.30;;;0.90;;
74108;SDS011;62466;47.566;7.786;2023-05-10T13:07:40;2.08;;;0.60;;
74108;SDS011;62466;47.566;7.786;2023-05-10T13:10:09;0.77;;;0.50;;
74108;SDS011;62466;47.566;7.786;2023-05-10T13:12:35;1.13;;;0.40;;
74108;SDS011;62466;47.566;7.786;2023-05-10T13:15:01;0.25;;;0.22;;
74108;SDS011;62466;47.566;7.786;2023-05-10T13:17:28;0.40;;;0.40;;
74108;SDS011;62466;47.566;7.786;2023-05-10T13:19:53;0.70;;;0.40;;
74108;SDS011;62466;47.566;7.786;2023-05-10T13:22:19;0.20;;;0.20;;
74108;SDS011;62466;47.566;7.786;2023-05-10T13:24:44;1.08;;;0.30;;
74108;SDS011;62466;47.566;7.786;2023-05-10T13:27:10;0.57;;;0.30;;
74108;SDS011;62466;47.566;7.786;2023-05-10T13:29:35;0.50;;;0.30;;
74108;SDS011;62466;47.566;7.786;2023-05-10T13:32:01;0.20;;;0.20;;
74108;SDS011;62466;47.566;7.786;2023-05-10T13:34:27;0.60;;;0.60;;
74108;SDS011;62466;47.566;7.786;2023-05-10T13:36:52;0.40;;;0.40;;
74108;SDS011;62466;47.566;7.786;2023-05-10T13:39:19;1.00;;;0.25;;
74108;SDS011;62466;47.566;7.786;2023-05-10T13:41:45;1.30;;;0.35;;
74108;SDS011;62466;47.566;7.786;2023-05-10T13:44:12;0.30;;;0.30;;
74108;SDS011;62466;47.566;7.786;2023-05-10T13:46:38;0.43;;;0.35;;
74108;SDS011;62466;47.566;7.786;2023-05-10T13:49:03;1.63;;;0.20;;
74108;SDS011;62466;47.566;7.786;2023-05-10T13:51:29;1.77;;;0.40;;
74108;SDS011;62466;47.566;7.786;2023-05-10T13:53:56;0.85;;;0.40;;
74108;SDS011;62466;47.566;7.786;2023-05-10T13:56:22;0.77;;;0.40;;
74108;SDS011;62466;47.566;7.786;2023-05-10T13:58:51;1.02;;;0.65;;
74108;SDS011;62466;47.566;7.786;2023-05-10T14:01:16;0.32;;;0.32;;
74108;SDS011;62466;47.566;7.786;2023-05-10T14:03:45;11.90;;;1.45;;
74108;SDS011;62466;47.566;7.786;2023-05-10T14:06:10;3.58;;;1.48;;
74108;SDS011;62466;47.566;7.786;2023-05-10T14:08:36;2.35;;;0.60;;
74108;SDS011;62466;47.566;7.786;2023-05-10T14:11:02;1.55;;;0.30;;
74108;SDS011;62466;47.566;7.786;2023-05-10T14:13:28;1.02;;;0.43;;
74108;SDS011;62466;47.566;7.786;2023-05-10T14:15:54;1.15;;;0.40;;
74108;SDS011;62466;47.566;7.786;2023-05-10T14:18:19;0.25;;;0.20;;
74108;SDS011;62466;47.566;7.786;2023-05-10T14:20:45;1.45;;;0.45;;
74108;SDS011;62466;47.566;7.786;2023-05-10T14:23:11;0.28;;;0.25;;
74108;SDS011;62466;47.566;7.786;2023-05-10T14:25:37;2.80;;;0.30;;
74108;SDS011;62466;47.566;7.786;2023-05-10T14:28:05;0.47;;;0.30;;
74108;SDS011;62466;47.566;7.786;2023-05-10T14:30:30;0.20;;;0.20;;
74108;SDS011;62466;47.566;7.786;2023-05-10T14:32:56;2.00;;;0.30;;
74108;SDS011;62466;47.566;7.786;2023-05-10T14:35:23;1.55;;;0.28;;
74108;SDS011;62466;47.566;7.786;2023-05-10T14:37:48;1.30;;;0.20;;
74108;SDS011;62466;47.566;7.786;2023-05-10T14:40:14;1.95;;;0.20;;
74108;SDS011;62466;47.566;7.786;2023-05-10T14:42:40;0.77;;;0.20;;
74108;SDS011;62466;47.566;7.786;2023-05-10T14:45:06;0.20;;;0.20;;
74108;SDS011;62466;47.566;7.786;2023-05-10T14:47:34;1.20;;;0.40;;
74108;SDS011;62466;47.566;7.786;2023-05-10T14:50:00;1.25;;;0.30;;
74108;SDS011;62466;47.566;7.786;2023-05-10T14:52:25;0.40;;;0.38;;
74108;SDS011;62466;47.566;7.786;2023-05-10T14:54:51;0.20;;;0.20;;
74108;SDS011;62466;47.566;7.786;2023-05-10T14:57:26;1.23;;;0.40;;
74108;SDS011;62466;47.566;7.786;2023-05-10T14:59:59;1.55;;;1.45;;
74108;SDS011;62466;47.566;7.786;2023-05-10T15:02:24;0.80;;;0.32;;
74108;SDS011;62466;47.566;7.786;2023-05-10T15:04:50;0.68;;;0.40;;
74108;SDS011;62466;47.566;7.786;2023-05-10T15:07:18;0.93;;;0.40;;
74108;SDS011;62466;47.566;7.786;2023-05-10T15:09:44;1.88;;;0.50;;
74108;SDS011;62466;47.566;7.786;2023-05-10T15:12:10;0.55;;;0.30;;
74108;SDS011;62466;47.566;7.786;2023-05-10T15:14:36;0.30;;;0.25;;
74108;SDS011;62466;47.566;7.786;2023-05-10T15:17:01;0.40;;;0.40;;
74108;SDS011;62466;47.566;7.786;2023-05-10T15:19:27;1.63;;;0.40;;
74108;SDS011;62466;47.566;7.786;2023-05-10T15:21:54;0.28;;;0.28;;
74108;SDS011;62466;47.566;7.786;2023-05-10T15:24:23;0.30;;;0.30;;
74108;SDS011;62466;47.566;7.786;2023-05-10T15:26:48;1.50;;;0.40;;
74108;SDS011;62466;47.566;7.786;2023-05-10T15:29:17;0.43;;;0.40;;
74108;SDS011;62466;47.566;7.786;2023-05-10T15:31:48;0.73;;;0.40;;
74108;SDS011;62466;47.566;7.786;2023-05-10T15:34:17;4.32;;;0.68;;
74108;SDS011;62466;47.566;7.786;2023-05-10T15:36:45;2.95;;;0.57;;
74108;SDS011;62466;47.566;7.786;2023-05-10T15:39:11;0.75;;;0.40;;
74108;SDS011;62466;47.566;7.786;2023-05-10T15:41:36;1.38;;;0.60;;
74108;SDS011;62466;47.566;7.786;2023-05-10T15:44:02;0.75;;;0.73;;
74108;SDS011;62466;47.566;7.786;2023-05-10T15:46:28;0.68;;;0.40;;
74108;SDS011;62466;47.566;7.786;2023-05-10T15:48:54;0.95;;;0.50;;
74108;SDS011;62466;47.566;7.786;2023-05-10T15:51:19;0.60;;;0.47;;
74108;SDS011;62466;47.566;7.786;2023-05-10T15:53:45;1.25;;;0.50;;
74108;SDS011;62466;47.566;7.786;2023-05-10T15:56:11;0.93;;;0.40;;
74108;SDS011;62466;47.566;7.786;2023-05-10T15:58:40;0.75;;;0.40;;
74108;SDS011;62466;47.566;7.786;2023-05-10T16:01:05;0.35;;;0.35;;
74108;SDS011;62466;47.566;7.786;2023-05-10T16:03:31;0.75;;;0.40;;
74108;SDS011;62466;47.566;7.786;2023-05-10T16:05:57;1.15;;;0.50;;
74108;SDS011;62466;47.566;7.786;2023-05-10T16:08:23;0.40;;;0.40;;
74108;SDS011;62466;47.566;7.786;2023-05-10T16:10:55;1.38;;;0.63;;
74108;SDS011;62466;47.566;7.786;2023-05-10T16:13:20;0.60;;;0.60;;
74108;SDS011;62466;47.566;7.786;2023-05-10T16:15:46;1.38;;;0.45;;
74108;SDS011;62466;47.566;7.786;2023-05-10T16:18:12;0.63;;;0.38;;
74108;SDS011;62466;47.566;7.786;2023-05-10T16:20:38;0.50;;;0.50;;
74108;SDS011;62466;47.566;7.786;2023-05-10T16:23:04;1.58;;;0.60;;
74108;SDS011;62466;47.566;7.786;2023-05-10T16:25:31;1.85;;;0.50;;
74108;SDS011;62466;47.566;7.786;2023-05-10T16:27:57;1.65;;;0.63;;
74108;SDS011;62466;47.566;7.786;2023-05-10T16:30:23;0.40;;;0.40;;
74108;SDS011;62466;47.566;7.786;2023-05-10T16:32:54;0.50;;;0.50;;
74108;SDS011;62466;47.566;7.786;2023-05-10T16:35:21;0.95;;;0.50;;
74108;SDS011;62466;47.566;7.786;2023-05-10T16:37:48;0.40;;;0.40;;
74108;SDS011;62466;47.566;7.786;2023-05-10T16:40:14;0.65;;;0.63;;
74108;SDS011;62466;47.566;7.786;2023-05-10T16:42:39;1.15;;;0.60;;
74108;SDS011;62466;47.566;7.786;2023-05-10T16:45:05;0.93;;;0.68;;
74108;SDS011;62466;47.566;7.786;2023-05-10T16:47:32;1.40;;;0.57;;
74108;SDS011;62466;47.566;7.786;2023-05-10T16:49:58;0.40;;;0.40;;
74108;SDS011;62466;47.566;7.786;2023-05-10T16:52:26;2.05;;;0.85;;
74108;SDS011;62466;47.566;7.786;2023-05-10T16:54:53;0.50;;;0.43;;
74108;SDS011;62466;47.566;7.786;2023-05-10T16:57:18;5.93;;;0.90;;
74108;SDS011;62466;47.566;7.786;2023-05-10T16:59:44;0.68;;;0.45;;
74108;SDS011;62466;47.566;7.786;2023-05-10T17:02:10;0.40;;;0.40;;
74108;SDS011;62466;47.566;7.786;2023-05-10T17:04:36;1.23;;;0.50;;
74108;SDS011;62466;47.566;7.786;2023-05-10T17:07:05;1.38;;;0.60;;
74108;SDS011;62466;47.566;7.786;2023-05-10T17:09:32;0.65;;;0.65;;
74108;SDS011;62466;47.566;7.786;2023-05-10T17:11:57;0.55;;;0.52;;
74108;SDS011;62466;47.566;7.786;2023-05-10T17:14:23;0.80;;;0.80;;
74108;SDS011;62466;47.566;7.786;2023-05-10T17:16:51;1.80;;;0.50;;
74108;SDS011;62466;47.566;7.786;2023-05-10T17:19:19;0.68;;;0.50;;
74108;SDS011;62466;47.566;7.786;2023-05-10T17:21:46;1.45;;;0.50;;
74108;SDS011;62466;47.566;7.786;2023-05-10T17:24:12;1.60;;;0.60;;
74108;SDS011;62466;47.566;7.786;2023-05-10T17:26:38;0.40;;;0.40;;
74108;SDS011;62466;47.566;7.786;2023-05-10T17:29:03;0.93;;;0.52;;
74108;SDS011;62466;47.566;7.786;2023-05-10T17:31:29;0.75;;;0.60;;
74108;SDS011;62466;47.566;7.786;2023-05-10T17:33:56;1.00;;;0.57;;
74108;SDS011;62466;47.566;7.786;2023-05-10T17:36:22;0.55;;;0.55;;
74108;SDS011;62466;47.566;7.786;2023-05-10T17:38:47;2.83;;;0.60;;
74108;SDS011;62466;47.566;7.786;2023-05-10T17:41:13;1.20;;;0.50;;
74108;SDS011;62466;47.566;7.786;2023-05-10T17:43:38;0.63;;;0.63;;
74108;SDS011;62466;47.566;7.786;2023-05-10T17:46:04;0.60;;;0.60;;
74108;SDS011;62466;47.566;7.786;2023-05-10T17:48:32;0.40;;;0.40;;
74108;SDS011;62466;47.566;7.786;2023-05-10T17:51:00;0.55;;;0.52;;
74108;SDS011;62466;47.566;7.786;2023-05-10T17:53:26;1.35;;;0.68;;
74108;SDS011;62466;47.566;7.786;2023-05-10T17:55:54;0.55;;;0.55;;
74108;SDS011;62466;47.566;7.786;2023-05-10T17:58:25;0.50;;;0.50;;
74108;SDS011;62466;47.566;7.786;2023-05-10T18:00:51;0.50;;;0.50;;
74108;SDS011;62466;47.566;7.786;2023-05-10T18:03:17;0.60;;;0.60;;
74108;SDS011;62466;47.566;7.786;2023-05-10T18:05:42;0.45;;;0.40;;
74108;SDS011;62466;47.566;7.786;2023-05-10T18:08:11;0.47;;;0.47;;
74108;SDS011;62466;47.566;7.786;2023-05-10T18:10:37;0.45;;;0.45;;
74108;SDS011;62466;47.566;7.786;2023-05-10T18:13:02;0.77;;;0.50;;
74108;SDS011;62466;47.566;7.786;2023-05-10T18:15:30;2.40;;;1.17;;
74108;SDS011;62466;47.566;7.786;2023-05-10T18:17:56;0.45;;;0.45;;
74108;SDS011;62466;47.566;7.786;2023-05-10T18:20:22;1.25;;;0.88;;
74108;SDS011;62466;47.566;7.786;2023-05-10T18:22:48;0.45;;;0.45;;
74108;SDS011;62466;47.566;7.786;2023-05-10T18:25:14;0.47;;;0.40;;
74108;SDS011;62466;47.566;7.786;2023-05-10T18:27:39;0.35;;;0.35;;
74108;SDS011;62466;47.566;7.786;2023-05-10T18:30:05;0.40;;;0.40;;
74108;SDS011;62466;47.566;7.786;2023-05-10T18:32:34;0.50;;;0.50;;
74108;SDS011;62466;47.566;7.786;2023-05-10T18:34:59;0.95;;;0.82;;
74108;SDS011;62466;47.566;7.786;2023-05-10T18:37:25;0.50;;;0.50;;
74108;SDS011;62466;47.566;7.786;2023-05-10T18:39:51;1.05;;;0.60;;
74108;SDS011;62466;47.566;7.786;2023-05-10T18:42:17;1.05;;;0.68;;
74108;SDS011;62466;47.566;7.786;2023-05-10T18:44:44;0.50;;;0.50;;
74108;SDS011;62466;47.566;7.786;2023-05-10T18:47:10;1.77;;;0.63;;
74108;SDS011;62466;47.566;7.786;2023-05-10T18:49:36;0.75;;;0.70;;
74108;SDS011;62466;47.566;7.786;2023-05-10T18:52:01;1.30;;;0.60;;
74108;SDS011;62466;47.566;7.786;2023-05-10T18:54:27;3.35;;;3.05;;
74108;SDS011;62466;47.566;7.786;2023-05-10T18:56:53;0.60;;;0.60;;
74108;SDS011;62466;47.566;7.786;2023-05-10T18:59:21;0.70;;;0.70;;
74108;SDS011;62466;47.566;7.786;2023-05-10T19:01:47;1.27;;;0.65;;
74108;SDS011;62466;47.566;7.786;2023-05-10T19:04:12;0.50;;;0.50;;
74108;SDS011;62466;47.566;7.786;2023-05-10T19:06:44;0.70;;;0.70;;
74108;SDS011;62466;47.566;7.786;2023-05-10T19:09:12;0.57;;;0.57;;
74108;SDS011;62466;47.566;7.786;2023-05-10T19:11:39;0.70;;;0.70;;
74108;SDS011;62466;47.566;7.786;2023-05-10T19:14:05;1.75;;;0.98;;
74108;SDS011;62466;47.566;7.786;2023-05-10T19:16:30;0.85;;;0.85;;
74108;SDS011;62466;47.566;7.786;2023-05-10T19:18:58;2.60;;;1.42;;
74108;SDS011;62466;47.566;7.786;2023-05-10T19:21:24;1.52;;;1.42;;
74108;SDS011;62466;47.566;7.786;2023-05-10T19:23:50;0.80;;;0.80;;
74108;SDS011;62466;47.566;7.786;2023-05-10T19:26:16;1.95;;;0.80;;
74108;SDS011;62466;47.566;7.786;2023-05-10T19:28:42;1.73;;;0.70;;
74108;SDS011;62466;47.566;7.786;2023-05-10T19:31:08;0.60;;;0.60;;
74108;SDS011;62466;47.566;7.786;2023-05-10T19:33:34;0.75;;;0.75;;
74108;SDS011;62466;47.566;7.786;2023-05-10T19:36:00;0.93;;;0.85;;
74108;SDS011;62466;47.566;7.786;2023-05-10T19:38:29;0.57;;;0.57;;
74108;SDS011;62466;47.566;7.786;2023-05-10T19:41:05;0.63;;;0.63;;
74108;SDS011;62466;47.566;7.786;2023-05-10T19:43:31;0.70;;;0.70;;
74108;SDS011;62466;47.566;7.786;2023-05-10T19:46:06;0.70;;;0.70;;
74108;SDS011;62466;47.566;7.786;2023-05-10T19:48:33;0.75;;;0.75;;
74108;SDS011;62466;47.566;7.786;2023-05-10T19:51:00;0.75;;;0.75;;
74108;SDS011;62466;47.566;7.786;2023-05-10T19:53:30;0.93;;;0.80;;
74108;SDS011;62466;47.566;7.786;2023-05-10T19:56:05;0.60;;;0.60;;
74108;SDS011;62466;47.566;7.786;2023-05-10T19:58:32;1.50;;;0.70;;
74108;SDS011;62466;47.566;7.786;2023-05-10T20:00:58;0.75;;;0.75;;
74108;SDS011;62466;47.566;7.786;2023-05-10T20:03:24;1.10;;;1.10;;
74108;SDS011;62466;47.566;7.786;2023-05-10T20:05:50;0.80;;;0.80;;
74108;SDS011;62466;47.566;7.786;2023-05-10T20:08:16;1.15;;;0.90;;